sensor_id;sensor_type;location;lat;lon;timestamp;P1;durP1;ratioP1;P2;durP2;ratioP2
1567;SDS011;777;47.156;8.326;2022-08-07T00:01:45;14.75;;;12.75;;
1567;SDS011;777;47.156;8.326;2022-08-07T00:04:12;15.25;;;13.75;;
1567;SDS011;777;47.156;8.326;2022-08-07T00:06:42;14.18;;;12.88;;
1567;SDS011;777;47.156;8.326;2022-08-07T00:09:09;15.27;;;13.77;;
1567;SDS011;777;47.156;8.326;2022-08-07T00:11:36;14.25;;;12.85;;
1567;SDS011;777;47.156;8.326;2022-08-07T00:14:03;14.40;;;13.00;;
1567;SDS011;777;47.156;8.326;2022-08-07T00:16:30;15.35;;;13.68;;
1567;SDS011;777;47.156;8.326;2022-08-07T00:18:58;15.90;;;14.30;;
1567;SDS011;777;47.156;8.326;2022-08-07T00:21:25;15.77;;;14.18;;
1567;SDS011;777;47.156;8.326;2022-08-07T00:23:53;18.90;;;15.63;;
1567;SDS011;777;47.156;8.326;2022-08-07T00:26:20;16.65;;;14.88;;
1567;SDS011;777;47.156;8.326;2022-08-07T00:28:48;15.55;;;13.95;;
1567;SDS011;777;47.156;8.326;2022-08-07T00:31:15;14.35;;;12.95;;
1567;SDS011;777;47.156;8.326;2022-08-07T00:33:42;16.05;;;14.35;;
1567;SDS011;777;47.156;8.326;2022-08-07T00:36:09;15.95;;;14.43;;
1567;SDS011;777;47.156;8.326;2022-08-07T00:38:37;15.50;;;13.98;;
1567;SDS011;777;47.156;8.326;2022-08-07T00:41:06;16.45;;;14.75;;
1567;SDS011;777;47.156;8.326;2022-08-07T00:43:33;15.98;;;14.48;;
1567;SDS011;777;47.156;8.326;2022-08-07T00:46:00;16.38;;;14.65;;
1567;SDS011;777;47.156;8.326;2022-08-07T00:48:28;17.08;;;15.23;;
1567;SDS011;777;47.156;8.326;2022-08-07T00:50:56;18.05;;;15.10;;
1567;SDS011;777;47.156;8.326;2022-08-07T00:53:24;17.33;;;15.63;;
1567;SDS011;777;47.156;8.326;2022-08-07T00:55:51;17.60;;;15.90;;
1567;SDS011;777;47.156;8.326;2022-08-07T00:58:20;16.77;;;14.73;;
1567;SDS011;777;47.156;8.326;2022-08-07T01:00:47;16.02;;;14.40;;
1567;SDS011;777;47.156;8.326;2022-08-07T01:03:15;16.13;;;14.40;;
1567;SDS011;777;47.156;8.326;2022-08-07T01:05:43;16.13;;;14.52;;
1567;SDS011;777;47.156;8.326;2022-08-07T01:08:12;17.65;;;15.77;;
1567;SDS011;777;47.156;8.326;2022-08-07T01:10:39;16.23;;;14.63;;
1567;SDS011;777;47.156;8.326;2022-08-07T01:13:08;16.80;;;15.18;;
1567;SDS011;777;47.156;8.326;2022-08-07T01:15:37;16.48;;;14.77;;
1567;SDS011;777;47.156;8.326;2022-08-07T01:18:04;17.23;;;15.43;;
1567;SDS011;777;47.156;8.326;2022-08-07T01:20:32;15.57;;;14.07;;
1567;SDS011;777;47.156;8.326;2022-08-07T01:23:04;14.45;;;13.13;;
1567;SDS011;777;47.156;8.326;2022-08-07T01:25:32;15.85;;;14.25;;
1567;SDS011;777;47.156;8.326;2022-08-07T01:28:01;15.30;;;13.85;;
1567;SDS011;777;47.156;8.326;2022-08-07T01:30:29;15.88;;;14.27;;
1567;SDS011;777;47.156;8.326;2022-08-07T01:32:57;15.95;;;14.48;;
1567;SDS011;777;47.156;8.326;2022-08-07T01:35:27;14.70;;;13.32;;
1567;SDS011;777;47.156;8.326;2022-08-07T01:37:55;15.15;;;13.75;;
1567;SDS011;777;47.156;8.326;2022-08-07T01:40:24;15.38;;;13.88;;
1567;SDS011;777;47.156;8.326;2022-08-07T01:42:56;16.17;;;14.57;;
1567;SDS011;777;47.156;8.326;2022-08-07T01:45:24;15.27;;;13.77;;
1567;SDS011;777;47.156;8.326;2022-08-07T01:47:55;14.27;;;12.90;;
1567;SDS011;777;47.156;8.326;2022-08-07T01:50:22;15.95;;;14.27;;
1567;SDS011;777;47.156;8.326;2022-08-07T01:52:50;14.80;;;13.32;;
1567;SDS011;777;47.156;8.326;2022-08-07T01:55:19;14.65;;;13.10;;
1567;SDS011;777;47.156;8.326;2022-08-07T01:57:54;14.38;;;12.48;;
1567;SDS011;777;47.156;8.326;2022-08-07T02:00:26;15.13;;;13.63;;
1567;SDS011;777;47.156;8.326;2022-08-07T02:02:57;15.50;;;13.50;;
1567;SDS011;777;47.156;8.326;2022-08-07T02:05:29;15.90;;;14.50;;
1567;SDS011;777;47.156;8.326;2022-08-07T02:08:08;16.40;;;14.70;;
1567;SDS011;777;47.156;8.326;2022-08-07T02:10:46;15.98;;;14.35;;
1567;SDS011;777;47.156;8.326;2022-08-07T02:13:19;15.35;;;13.82;;
1567;SDS011;777;47.156;8.326;2022-08-07T02:18:19;16.23;;;14.52;;
1567;SDS011;777;47.156;8.326;2022-08-07T02:20:48;16.50;;;14.70;;
1567;SDS011;777;47.156;8.326;2022-08-07T02:23:19;17.15;;;15.30;;
1567;SDS011;777;47.156;8.326;2022-08-07T02:25:48;16.13;;;14.55;;
1567;SDS011;777;47.156;8.326;2022-08-07T02:28:20;14.82;;;13.43;;
1567;SDS011;777;47.156;8.326;2022-08-07T02:30:48;16.60;;;15.05;;
1567;SDS011;777;47.156;8.326;2022-08-07T02:33:17;15.43;;;13.95;;
1567;SDS011;777;47.156;8.326;2022-08-07T02:35:47;15.40;;;13.85;;
1567;SDS011;777;47.156;8.326;2022-08-07T02:38:16;14.45;;;13.05;;
1567;SDS011;777;47.156;8.326;2022-08-07T02:40:45;15.13;;;13.60;;
1567;SDS011;777;47.156;8.326;2022-08-07T02:43:13;15.18;;;13.68;;
1567;SDS011;777;47.156;8.326;2022-08-07T02:45:43;14.98;;;13.57;;
1567;SDS011;777;47.156;8.326;2022-08-07T02:48:12;15.60;;;13.95;;
1567;SDS011;777;47.156;8.326;2022-08-07T02:50:42;15.32;;;13.73;;
1567;SDS011;777;47.156;8.326;2022-08-07T02:53:14;14.95;;;13.60;;
1567;SDS011;777;47.156;8.326;2022-08-07T02:55:47;15.20;;;13.60;;
1567;SDS011;777;47.156;8.326;2022-08-07T02:58:16;14.75;;;13.35;;
1567;SDS011;777;47.156;8.326;2022-08-07T03:00:48;15.00;;;13.48;;
1567;SDS011;777;47.156;8.326;2022-08-07T03:03:17;14.52;;;13.13;;
1567;SDS011;777;47.156;8.326;2022-08-07T03:05:47;15.15;;;13.65;;
1567;SDS011;777;47.156;8.326;2022-08-07T03:08:16;14.35;;;12.98;;
1567;SDS011;777;47.156;8.326;2022-08-07T03:10:46;15.63;;;14.02;;
1567;SDS011;777;47.156;8.326;2022-08-07T03:13:20;15.30;;;13.40;;
1567;SDS011;777;47.156;8.326;2022-08-07T03:15:51;14.40;;;13.00;;
1567;SDS011;777;47.156;8.326;2022-08-07T03:18:19;14.25;;;12.88;;
1567;SDS011;777;47.156;8.326;2022-08-07T03:20:48;13.52;;;12.13;;
1567;SDS011;777;47.156;8.326;2022-08-07T03:23:16;14.45;;;13.15;;
1567;SDS011;777;47.156;8.326;2022-08-07T03:25:44;15.20;;;13.80;;
1567;SDS011;777;47.156;8.326;2022-08-07T03:28:15;13.90;;;12.68;;
1567;SDS011;777;47.156;8.326;2022-08-07T03:30:43;13.50;;;12.27;;
1567;SDS011;777;47.156;8.326;2022-08-07T03:33:13;14.35;;;12.95;;
1567;SDS011;777;47.156;8.326;2022-08-07T03:35:42;13.90;;;12.50;;
1567;SDS011;777;47.156;8.326;2022-08-07T03:38:11;13.52;;;12.13;;
1567;SDS011;777;47.156;8.326;2022-08-07T03:40:41;14.25;;;12.85;;
1567;SDS011;777;47.156;8.326;2022-08-07T03:43:11;13.32;;;12.07;;
1567;SDS011;777;47.156;8.326;2022-08-07T03:45:43;13.40;;;12.20;;
1567;SDS011;777;47.156;8.326;2022-08-07T03:48:15;14.18;;;12.75;;
1567;SDS011;777;47.156;8.326;2022-08-07T03:50:43;13.43;;;12.13;;
1567;SDS011;777;47.156;8.326;2022-08-07T03:53:11;12.88;;;11.60;;
1567;SDS011;777;47.156;8.326;2022-08-07T03:55:39;15.35;;;12.93;;
1567;SDS011;777;47.156;8.326;2022-08-07T03:58:09;14.13;;;12.63;;
1567;SDS011;777;47.156;8.326;2022-08-07T04:00:38;12.68;;;11.45;;
1567;SDS011;777;47.156;8.326;2022-08-07T04:03:08;13.15;;;11.95;;
1567;SDS011;777;47.156;8.326;2022-08-07T04:05:40;14.55;;;13.15;;
1567;SDS011;777;47.156;8.326;2022-08-07T04:08:18;12.70;;;11.50;;
1567;SDS011;777;47.156;8.326;2022-08-07T04:10:46;13.25;;;12.02;;
1567;SDS011;777;47.156;8.326;2022-08-07T04:13:14;13.30;;;12.00;;
1567;SDS011;777;47.156;8.326;2022-08-07T04:15:42;13.73;;;12.30;;
1567;SDS011;777;47.156;8.326;2022-08-07T04:18:11;13.13;;;11.85;;
1567;SDS011;777;47.156;8.326;2022-08-07T04:20:41;13.23;;;11.93;;
1567;SDS011;777;47.156;8.326;2022-08-07T04:23:10;13.48;;;12.02;;
1567;SDS011;777;47.156;8.326;2022-08-07T04:25:39;13.95;;;12.57;;
1567;SDS011;777;47.156;8.326;2022-08-07T04:28:10;13.95;;;12.65;;
1567;SDS011;777;47.156;8.326;2022-08-07T04:30:38;14.32;;;12.10;;
1567;SDS011;777;47.156;8.326;2022-08-07T04:33:25;13.73;;;12.40;;
1567;SDS011;777;47.156;8.326;2022-08-07T04:35:56;13.25;;;11.90;;
1567;SDS011;777;47.156;8.326;2022-08-07T04:38:26;13.13;;;11.93;;
1567;SDS011;777;47.156;8.326;2022-08-07T04:40:55;13.25;;;11.95;;
1567;SDS011;777;47.156;8.326;2022-08-07T04:43:33;13.50;;;12.13;;
1567;SDS011;777;47.156;8.326;2022-08-07T04:46:05;13.32;;;12.05;;
1567;SDS011;777;47.156;8.326;2022-08-07T04:48:39;13.80;;;12.07;;
1567;SDS011;777;47.156;8.326;2022-08-07T04:51:18;14.10;;;12.70;;
1567;SDS011;777;47.156;8.326;2022-08-07T04:54:01;13.27;;;11.93;;
1567;SDS011;777;47.156;8.326;2022-08-07T04:56:37;12.63;;;11.40;;
1567;SDS011;777;47.156;8.326;2022-08-07T04:59:12;13.15;;;11.82;;
1567;SDS011;777;47.156;8.326;2022-08-07T05:01:45;13.35;;;12.10;;
1567;SDS011;777;47.156;8.326;2022-08-07T05:04:21;12.90;;;11.60;;
1567;SDS011;777;47.156;8.326;2022-08-07T05:06:57;12.55;;;11.35;;
1567;SDS011;777;47.156;8.326;2022-08-07T05:09:31;12.55;;;11.35;;
1567;SDS011;777;47.156;8.326;2022-08-07T05:12:03;15.00;;;12.18;;
1567;SDS011;777;47.156;8.326;2022-08-07T05:14:36;12.90;;;11.57;;
1567;SDS011;777;47.156;8.326;2022-08-07T05:17:06;13.13;;;11.82;;
1567;SDS011;777;47.156;8.326;2022-08-07T05:19:36;12.40;;;11.18;;
1567;SDS011;777;47.156;8.326;2022-08-07T05:22:08;13.48;;;12.27;;
1567;SDS011;777;47.156;8.326;2022-08-07T05:24:39;12.93;;;11.75;;
1567;SDS011;777;47.156;8.326;2022-08-07T05:27:09;12.48;;;11.15;;
1567;SDS011;777;47.156;8.326;2022-08-07T05:29:40;12.43;;;11.15;;
1567;SDS011;777;47.156;8.326;2022-08-07T05:32:10;12.45;;;11.23;;
1567;SDS011;777;47.156;8.326;2022-08-07T05:34:40;12.30;;;11.10;;
1567;SDS011;777;47.156;8.326;2022-08-07T05:37:09;12.40;;;11.20;;
1567;SDS011;777;47.156;8.326;2022-08-07T05:39:48;11.65;;;10.50;;
1567;SDS011;777;47.156;8.326;2022-08-07T05:42:16;12.90;;;11.63;;
1567;SDS011;777;47.156;8.326;2022-08-07T05:44:44;11.52;;;10.57;;
1567;SDS011;777;47.156;8.326;2022-08-07T05:47:12;11.80;;;10.65;;
1567;SDS011;777;47.156;8.326;2022-08-07T05:49:45;12.95;;;11.68;;
1567;SDS011;777;47.156;8.326;2022-08-07T05:52:17;12.35;;;11.10;;
1567;SDS011;777;47.156;8.326;2022-08-07T05:54:46;11.73;;;10.55;;
1567;SDS011;777;47.156;8.326;2022-08-07T05:57:14;11.70;;;10.70;;
1567;SDS011;777;47.156;8.326;2022-08-07T05:59:42;11.00;;;9.95;;
1567;SDS011;777;47.156;8.326;2022-08-07T06:02:12;11.52;;;10.43;;
1567;SDS011;777;47.156;8.326;2022-08-07T06:04:44;11.80;;;10.70;;
1567;SDS011;777;47.156;8.326;2022-08-07T06:07:17;13.23;;;11.52;;
1567;SDS011;777;47.156;8.326;2022-08-07T06:09:45;12.10;;;11.00;;
1567;SDS011;777;47.156;8.326;2022-08-07T06:12:13;12.27;;;11.07;;
1567;SDS011;777;47.156;8.326;2022-08-07T06:14:41;11.45;;;10.35;;
1567;SDS011;777;47.156;8.326;2022-08-07T06:17:08;11.95;;;10.75;;
1567;SDS011;777;47.156;8.326;2022-08-07T06:19:38;12.50;;;10.93;;
1567;SDS011;777;47.156;8.326;2022-08-07T06:22:07;12.48;;;11.25;;
1567;SDS011;777;47.156;8.326;2022-08-07T06:24:38;10.98;;;9.98;;
1567;SDS011;777;47.156;8.326;2022-08-07T06:27:05;11.65;;;10.52;;
1567;SDS011;777;47.156;8.326;2022-08-07T06:29:33;12.32;;;10.93;;
1567;SDS011;777;47.156;8.326;2022-08-07T06:32:00;11.07;;;10.10;;
1567;SDS011;777;47.156;8.326;2022-08-07T06:34:27;11.75;;;10.60;;
1567;SDS011;777;47.156;8.326;2022-08-07T06:36:56;11.38;;;10.27;;
1567;SDS011;777;47.156;8.326;2022-08-07T06:39:30;11.35;;;10.32;;
1567;SDS011;777;47.156;8.326;2022-08-07T06:42:01;11.00;;;9.80;;
1567;SDS011;777;47.156;8.326;2022-08-07T06:44:53;12.55;;;11.35;;
1567;SDS011;777;47.156;8.326;2022-08-07T06:47:23;12.43;;;11.20;;
1567;SDS011;777;47.156;8.326;2022-08-07T06:49:50;11.95;;;10.55;;
1567;SDS011;777;47.156;8.326;2022-08-07T06:52:18;10.98;;;9.73;;
1567;SDS011;777;47.156;8.326;2022-08-07T06:54:48;13.65;;;11.20;;
1567;SDS011;777;47.156;8.326;2022-08-07T06:57:18;11.57;;;10.38;;
1567;SDS011;777;47.156;8.326;2022-08-07T06:59:47;11.70;;;10.50;;
1567;SDS011;777;47.156;8.326;2022-08-07T07:02:17;11.70;;;10.50;;
1567;SDS011;777;47.156;8.326;2022-08-07T07:04:46;11.13;;;10.13;;
1567;SDS011;777;47.156;8.326;2022-08-07T07:07:14;11.20;;;10.10;;
1567;SDS011;777;47.156;8.326;2022-08-07T07:09:43;12.07;;;10.82;;
1567;SDS011;777;47.156;8.326;2022-08-07T07:12:17;11.70;;;10.50;;
1567;SDS011;777;47.156;8.326;2022-08-07T07:14:52;10.95;;;9.95;;
1567;SDS011;777;47.156;8.326;2022-08-07T07:17:27;12.18;;;10.90;;
1567;SDS011;777;47.156;8.326;2022-08-07T07:20:02;12.05;;;10.95;;
1567;SDS011;777;47.156;8.326;2022-08-07T07:22:31;12.55;;;11.35;;
1567;SDS011;777;47.156;8.326;2022-08-07T07:24:59;11.95;;;10.77;;
1567;SDS011;777;47.156;8.326;2022-08-07T07:27:30;11.02;;;9.88;;
1567;SDS011;777;47.156;8.326;2022-08-07T07:30:02;11.82;;;10.73;;
1567;SDS011;777;47.156;8.326;2022-08-07T07:32:30;11.27;;;10.27;;
1567;SDS011;777;47.156;8.326;2022-08-07T07:35:03;10.88;;;9.88;;
1567;SDS011;777;47.156;8.326;2022-08-07T07:37:32;10.52;;;9.52;;
1567;SDS011;777;47.156;8.326;2022-08-07T07:40:02;11.80;;;10.70;;
1567;SDS011;777;47.156;8.326;2022-08-07T07:42:32;12.20;;;11.05;;
1567;SDS011;777;47.156;8.326;2022-08-07T07:45:02;11.77;;;10.40;;
1567;SDS011;777;47.156;8.326;2022-08-07T07:47:31;11.80;;;10.70;;
1567;SDS011;777;47.156;8.326;2022-08-07T07:50:02;10.82;;;9.82;;
1567;SDS011;777;47.156;8.326;2022-08-07T07:52:31;10.30;;;9.40;;
1567;SDS011;777;47.156;8.326;2022-08-07T07:54:58;11.60;;;10.57;;
1567;SDS011;777;47.156;8.326;2022-08-07T07:57:28;11.55;;;10.27;;
1567;SDS011;777;47.156;8.326;2022-08-07T07:59:58;10.90;;;9.90;;
1567;SDS011;777;47.156;8.326;2022-08-07T08:02:37;11.00;;;9.93;;
1567;SDS011;777;47.156;8.326;2022-08-07T08:05:07;10.43;;;9.48;;
1567;SDS011;777;47.156;8.326;2022-08-07T08:07:35;10.20;;;9.20;;
1567;SDS011;777;47.156;8.326;2022-08-07T08:10:05;11.00;;;9.85;;
1567;SDS011;777;47.156;8.326;2022-08-07T08:12:33;10.63;;;9.57;;
1567;SDS011;777;47.156;8.326;2022-08-07T08:15:02;10.90;;;9.90;;
1567;SDS011;777;47.156;8.326;2022-08-07T08:17:31;10.65;;;9.70;;
1567;SDS011;777;47.156;8.326;2022-08-07T08:20:02;10.88;;;9.77;;
1567;SDS011;777;47.156;8.326;2022-08-07T08:22:31;10.07;;;8.85;;
1567;SDS011;777;47.156;8.326;2022-08-07T08:25:20;10.00;;;9.10;;
1567;SDS011;777;47.156;8.326;2022-08-07T08:28:08;11.23;;;10.02;;
1567;SDS011;777;47.156;8.326;2022-08-07T08:30:42;10.10;;;9.18;;
1567;SDS011;777;47.156;8.326;2022-08-07T08:33:12;9.52;;;8.73;;
1567;SDS011;777;47.156;8.326;2022-08-07T08:35:44;11.35;;;10.25;;
1567;SDS011;777;47.156;8.326;2022-08-07T08:38:13;11.95;;;10.77;;
1567;SDS011;777;47.156;8.326;2022-08-07T08:40:43;12.77;;;10.52;;
1567;SDS011;777;47.156;8.326;2022-08-07T08:43:16;10.32;;;9.43;;
1567;SDS011;777;47.156;8.326;2022-08-07T08:45:48;10.20;;;9.30;;
1567;SDS011;777;47.156;8.326;2022-08-07T08:48:21;10.05;;;9.18;;
1567;SDS011;777;47.156;8.326;2022-08-07T08:50:57;11.68;;;10.48;;
1567;SDS011;777;47.156;8.326;2022-08-07T08:53:30;10.30;;;9.30;;
1567;SDS011;777;47.156;8.326;2022-08-07T08:56:03;10.32;;;9.32;;
1567;SDS011;777;47.156;8.326;2022-08-07T08:58:47;10.10;;;9.10;;
1567;SDS011;777;47.156;8.326;2022-08-07T09:01:19;11.25;;;10.15;;
1567;SDS011;777;47.156;8.326;2022-08-07T09:03:53;19.75;;;16.45;;
1567;SDS011;777;47.156;8.326;2022-08-07T09:06:36;13.35;;;11.05;;
1567;SDS011;777;47.156;8.326;2022-08-07T09:09:16;12.23;;;10.93;;
1567;SDS011;777;47.156;8.326;2022-08-07T09:11:59;365.77;;;330.40;;
1567;SDS011;777;47.156;8.326;2022-08-07T09:14:38;707.65;;;637.55;;
1567;SDS011;777;47.156;8.326;2022-08-07T09:17:16;362.05;;;330.05;;
1567;SDS011;777;47.156;8.326;2022-08-07T09:20:11;311.35;;;266.92;;
1567;SDS011;777;47.156;8.326;2022-08-07T09:22:51;32.28;;;28.20;;
1567;SDS011;777;47.156;8.326;2022-08-07T09:25:23;12.05;;;10.80;;
1567;SDS011;777;47.156;8.326;2022-08-07T09:27:56;10.88;;;9.93;;
1567;SDS011;777;47.156;8.326;2022-08-07T09:30:30;10.50;;;9.50;;
1567;SDS011;777;47.156;8.326;2022-08-07T09:33:11;10.45;;;9.48;;
1567;SDS011;777;47.156;8.326;2022-08-07T09:35:53;10.10;;;9.20;;
1567;SDS011;777;47.156;8.326;2022-08-07T09:38:24;11.20;;;10.02;;
1567;SDS011;777;47.156;8.326;2022-08-07T09:41:02;11.02;;;9.10;;
1567;SDS011;777;47.156;8.326;2022-08-07T09:43:41;9.88;;;8.82;;
1567;SDS011;777;47.156;8.326;2022-08-07T09:46:24;8.77;;;7.90;;
1567;SDS011;777;47.156;8.326;2022-08-07T09:49:00;8.80;;;7.78;;
1567;SDS011;777;47.156;8.326;2022-08-07T09:51:45;8.30;;;7.50;;
1567;SDS011;777;47.156;8.326;2022-08-07T09:54:21;10.52;;;8.00;;
1567;SDS011;777;47.156;8.326;2022-08-07T09:56:57;10.05;;;9.05;;
1567;SDS011;777;47.156;8.326;2022-08-07T09:59:57;9.40;;;8.52;;
1567;SDS011;777;47.156;8.326;2022-08-07T10:02:54;9.23;;;8.40;;
1567;SDS011;777;47.156;8.326;2022-08-07T10:11:50;10.27;;;7.47;;
1567;SDS011;777;47.156;8.326;2022-08-07T10:14:35;8.98;;;8.18;;
1567;SDS011;777;47.156;8.326;2022-08-07T10:17:20;9.65;;;8.75;;
1567;SDS011;777;47.156;8.326;2022-08-07T10:20:10;9.68;;;8.75;;
1567;SDS011;777;47.156;8.326;2022-08-07T10:22:56;9.35;;;8.55;;
1567;SDS011;777;47.156;8.326;2022-08-07T10:25:55;9.85;;;8.95;;
1567;SDS011;777;47.156;8.326;2022-08-07T10:28:36;10.23;;;9.23;;
1567;SDS011;777;47.156;8.326;2022-08-07T10:31:23;10.55;;;8.50;;
1567;SDS011;777;47.156;8.326;2022-08-07T10:34:04;9.68;;;8.68;;
1567;SDS011;777;47.156;8.326;2022-08-07T10:36:46;9.27;;;8.38;;
1567;SDS011;777;47.156;8.326;2022-08-07T10:39:24;10.18;;;9.15;;
1567;SDS011;777;47.156;8.326;2022-08-07T10:42:06;9.63;;;8.73;;
1567;SDS011;777;47.156;8.326;2022-08-07T10:44:39;9.35;;;8.45;;
1567;SDS011;777;47.156;8.326;2022-08-07T10:47:18;10.55;;;7.90;;
1567;SDS011;777;47.156;8.326;2022-08-07T10:49:53;11.32;;;9.30;;
1567;SDS011;777;47.156;8.326;2022-08-07T10:52:27;9.80;;;8.80;;
1567;SDS011;777;47.156;8.326;2022-08-07T10:55:06;10.25;;;9.25;;
1567;SDS011;777;47.156;8.326;2022-08-07T10:57:45;10.68;;;9.40;;
1567;SDS011;777;47.156;8.326;2022-08-07T11:00:23;10.02;;;9.00;;
1567;SDS011;777;47.156;8.326;2022-08-07T11:02:57;10.77;;;9.35;;
1567;SDS011;777;47.156;8.326;2022-08-07T11:05:31;10.02;;;8.90;;
1567;SDS011;777;47.156;8.326;2022-08-07T11:08:09;9.75;;;8.85;;
1567;SDS011;777;47.156;8.326;2022-08-07T11:10:44;12.25;;;9.43;;
1567;SDS011;777;47.156;8.326;2022-08-07T11:13:17;9.02;;;8.13;;
1567;SDS011;777;47.156;8.326;2022-08-07T11:15:51;9.90;;;8.70;;
1567;SDS011;777;47.156;8.326;2022-08-07T11:18:23;8.85;;;7.97;;
1567;SDS011;777;47.156;8.326;2022-08-07T11:20:55;8.57;;;7.75;;
1567;SDS011;777;47.156;8.326;2022-08-07T11:23:34;9.00;;;7.47;;
1567;SDS011;777;47.156;8.326;2022-08-07T11:26:12;8.40;;;7.55;;
1567;SDS011;777;47.156;8.326;2022-08-07T11:28:48;9.77;;;7.65;;
1567;SDS011;777;47.156;8.326;2022-08-07T11:33:50;8.10;;;7.30;;
1567;SDS011;777;47.156;8.326;2022-08-07T11:39:16;7.97;;;7.28;;
1567;SDS011;777;47.156;8.326;2022-08-07T11:41:56;7.32;;;6.57;;
1567;SDS011;777;47.156;8.326;2022-08-07T11:44:34;7.97;;;7.18;;
1567;SDS011;777;47.156;8.326;2022-08-07T11:47:08;9.38;;;7.40;;
1567;SDS011;777;47.156;8.326;2022-08-07T11:50:00;7.38;;;6.55;;
1567;SDS011;777;47.156;8.326;2022-08-07T11:52:44;8.38;;;7.57;;
1567;SDS011;777;47.156;8.326;2022-08-07T11:55:22;9.20;;;7.03;;
1567;SDS011;777;47.156;8.326;2022-08-07T11:58:02;9.88;;;6.35;;
1567;SDS011;777;47.156;8.326;2022-08-07T12:00:47;7.30;;;6.55;;
1567;SDS011;777;47.156;8.326;2022-08-07T12:03:29;7.55;;;6.65;;
1567;SDS011;777;47.156;8.326;2022-08-07T12:06:11;7.55;;;6.78;;
1567;SDS011;777;47.156;8.326;2022-08-07T12:08:51;7.22;;;6.50;;
1567;SDS011;777;47.156;8.326;2022-08-07T12:11:25;7.65;;;6.40;;
1567;SDS011;777;47.156;8.326;2022-08-07T12:14:00;7.72;;;6.47;;
1567;SDS011;777;47.156;8.326;2022-08-07T12:16:35;6.78;;;6.10;;
1567;SDS011;777;47.156;8.326;2022-08-07T12:19:12;8.15;;;6.47;;
1567;SDS011;777;47.156;8.326;2022-08-07T12:21:44;8.05;;;7.25;;
1567;SDS011;777;47.156;8.326;2022-08-07T12:24:19;8.68;;;6.75;;
1567;SDS011;777;47.156;8.326;2022-08-07T12:26:52;8.93;;;7.15;;
1567;SDS011;777;47.156;8.326;2022-08-07T12:29:30;7.57;;;6.80;;
1567;SDS011;777;47.156;8.326;2022-08-07T12:32:04;6.78;;;5.97;;
1567;SDS011;777;47.156;8.326;2022-08-07T12:34:38;7.13;;;6.05;;
1567;SDS011;777;47.156;8.326;2022-08-07T12:37:07;8.13;;;6.70;;
1567;SDS011;777;47.156;8.326;2022-08-07T12:39:36;6.60;;;5.95;;
1567;SDS011;777;47.156;8.326;2022-08-07T12:42:06;6.63;;;6.00;;
1567;SDS011;777;47.156;8.326;2022-08-07T12:44:35;6.60;;;6.00;;
1567;SDS011;777;47.156;8.326;2022-08-07T12:47:08;7.97;;;5.78;;
1567;SDS011;777;47.156;8.326;2022-08-07T12:49:44;6.47;;;5.88;;
1567;SDS011;777;47.156;8.326;2022-08-07T12:52:20;6.25;;;5.53;;
1567;SDS011;777;47.156;8.326;2022-08-07T12:54:56;6.55;;;5.82;;
1567;SDS011;777;47.156;8.326;2022-08-07T12:57:29;6.32;;;5.28;;
1567;SDS011;777;47.156;8.326;2022-08-07T12:59:57;5.60;;;4.85;;
1567;SDS011;777;47.156;8.326;2022-08-07T13:02:31;4.35;;;3.95;;
1567;SDS011;777;47.156;8.326;2022-08-07T13:05:16;4.22;;;3.78;;
1567;SDS011;777;47.156;8.326;2022-08-07T13:08:00;7.03;;;4.50;;
1567;SDS011;777;47.156;8.326;2022-08-07T13:10:40;5.10;;;4.60;;
1567;SDS011;777;47.156;8.326;2022-08-07T13:13:31;4.72;;;4.32;;
1567;SDS011;777;47.156;8.326;2022-08-07T13:16:08;5.20;;;4.70;;
1567;SDS011;777;47.156;8.326;2022-08-07T13:18:45;5.28;;;4.82;;
1567;SDS011;777;47.156;8.326;2022-08-07T13:21:17;5.07;;;4.57;;
1567;SDS011;777;47.156;8.326;2022-08-07T13:23:49;7.95;;;4.32;;
1567;SDS011;777;47.156;8.326;2022-08-07T13:26:23;5.45;;;4.82;;
1567;SDS011;777;47.156;8.326;2022-08-07T13:29:02;6.72;;;4.20;;
1567;SDS011;777;47.156;8.326;2022-08-07T13:31:38;5.13;;;4.60;;
1567;SDS011;777;47.156;8.326;2022-08-07T13:34:12;5.28;;;4.00;;
1567;SDS011;777;47.156;8.326;2022-08-07T13:36:48;4.47;;;4.00;;
1567;SDS011;777;47.156;8.326;2022-08-07T13:39:21;6.18;;;4.20;;
1567;SDS011;777;47.156;8.326;2022-08-07T13:41:53;4.80;;;3.85;;
1567;SDS011;777;47.156;8.326;2022-08-07T13:44:22;4.43;;;4.05;;
1567;SDS011;777;47.156;8.326;2022-08-07T13:46:55;4.60;;;4.10;;
1567;SDS011;777;47.156;8.326;2022-08-07T13:49:27;4.60;;;4.20;;
1567;SDS011;777;47.156;8.326;2022-08-07T13:52:00;5.22;;;3.92;;
1567;SDS011;777;47.156;8.326;2022-08-07T13:54:30;4.75;;;4.15;;
1567;SDS011;777;47.156;8.326;2022-08-07T13:56:59;4.60;;;3.60;;
1567;SDS011;777;47.156;8.326;2022-08-07T13:59:33;4.82;;;4.35;;
1567;SDS011;777;47.156;8.326;2022-08-07T14:02:02;5.00;;;4.30;;
1567;SDS011;777;47.156;8.326;2022-08-07T14:04:39;4.82;;;4.38;;
1567;SDS011;777;47.156;8.326;2022-08-07T14:07:11;5.30;;;4.00;;
1567;SDS011;777;47.156;8.326;2022-08-07T14:09:40;4.80;;;4.10;;
1567;SDS011;777;47.156;8.326;2022-08-07T14:12:09;4.70;;;4.30;;
1567;SDS011;777;47.156;8.326;2022-08-07T14:14:43;4.45;;;4.05;;
1567;SDS011;777;47.156;8.326;2022-08-07T14:17:16;4.78;;;4.05;;
1567;SDS011;777;47.156;8.326;2022-08-07T14:19:51;5.15;;;3.33;;
1567;SDS011;777;47.156;8.326;2022-08-07T14:22:24;4.03;;;3.63;;
1567;SDS011;777;47.156;8.326;2022-08-07T14:24:55;4.35;;;3.70;;
1567;SDS011;777;47.156;8.326;2022-08-07T14:27:27;4.10;;;3.70;;
1567;SDS011;777;47.156;8.326;2022-08-07T14:30:02;4.82;;;4.00;;
1567;SDS011;777;47.156;8.326;2022-08-07T14:32:35;3.45;;;3.15;;
1567;SDS011;777;47.156;8.326;2022-08-07T14:35:14;3.75;;;3.15;;
1567;SDS011;777;47.156;8.326;2022-08-07T14:37:44;6.00;;;3.50;;
1567;SDS011;777;47.156;8.326;2022-08-07T14:40:17;4.88;;;4.05;;
1567;SDS011;777;47.156;8.326;2022-08-07T14:42:45;5.78;;;3.20;;
1567;SDS011;777;47.156;8.326;2022-08-07T14:45:19;5.53;;;3.08;;
1567;SDS011;777;47.156;8.326;2022-08-07T14:47:47;4.03;;;3.28;;
1567;SDS011;777;47.156;8.326;2022-08-07T14:50:17;3.50;;;2.80;;
1567;SDS011;777;47.156;8.326;2022-08-07T14:52:47;5.53;;;5.03;;
1567;SDS011;777;47.156;8.326;2022-08-07T14:55:15;4.95;;;4.55;;
1567;SDS011;777;47.156;8.326;2022-08-07T14:57:45;5.00;;;4.45;;
1567;SDS011;777;47.156;8.326;2022-08-07T15:00:15;6.10;;;5.50;;
1567;SDS011;777;47.156;8.326;2022-08-07T15:02:43;5.10;;;4.60;;
1567;SDS011;777;47.156;8.326;2022-08-07T15:05:17;6.53;;;5.18;;
1567;SDS011;777;47.156;8.326;2022-08-07T15:07:46;6.28;;;4.75;;
1567;SDS011;777;47.156;8.326;2022-08-07T15:10:17;8.65;;;5.30;;
1567;SDS011;777;47.156;8.326;2022-08-07T15:12:46;6.13;;;5.20;;
1567;SDS011;777;47.156;8.326;2022-08-07T15:15:20;6.10;;;5.47;;
1567;SDS011;777;47.156;8.326;2022-08-07T15:17:57;7.43;;;5.50;;
1567;SDS011;777;47.156;8.326;2022-08-07T15:20:29;5.15;;;4.65;;
1567;SDS011;777;47.156;8.326;2022-08-07T15:23:01;6.43;;;5.10;;
1567;SDS011;777;47.156;8.326;2022-08-07T15:25:31;4.93;;;4.20;;
1567;SDS011;777;47.156;8.326;2022-08-07T15:28:01;5.50;;;4.78;;
1567;SDS011;777;47.156;8.326;2022-08-07T15:30:30;4.70;;;4.30;;
1567;SDS011;777;47.156;8.326;2022-08-07T15:33:02;5.97;;;3.85;;
1567;SDS011;777;47.156;8.326;2022-08-07T15:35:31;4.40;;;4.00;;
1567;SDS011;777;47.156;8.326;2022-08-07T15:38:01;4.72;;;4.22;;
1567;SDS011;777;47.156;8.326;2022-08-07T15:40:32;4.28;;;3.88;;
1567;SDS011;777;47.156;8.326;2022-08-07T15:43:11;4.43;;;3.90;;
1567;SDS011;777;47.156;8.326;2022-08-07T15:45:42;4.47;;;3.50;;
1567;SDS011;777;47.156;8.326;2022-08-07T15:48:17;5.95;;;3.70;;
1567;SDS011;777;47.156;8.326;2022-08-07T15:50:49;3.38;;;3.00;;
1567;SDS011;777;47.156;8.326;2022-08-07T15:53:23;2.90;;;2.70;;
1567;SDS011;777;47.156;8.326;2022-08-07T15:55:53;3.83;;;3.05;;
1567;SDS011;777;47.156;8.326;2022-08-07T15:58:22;4.25;;;3.33;;
1567;SDS011;777;47.156;8.326;2022-08-07T16:01:04;3.58;;;3.25;;